createdAt,value
2023-02-27T00:02:18.432Z,6.71
2023-02-27T00:07:25.967Z,6.64
2023-02-27T00:12:30.676Z,6.53
2023-02-27T00:17:35.598Z,6.52
2023-02-27T00:22:39.172Z,6.53
2023-02-27T00:27:43.101Z,6.51
2023-02-27T00:32:48.062Z,6.51
2023-02-27T00:37:51.527Z,6.43
2023-02-27T00:42:55.323Z,6.24
2023-02-27T00:48:00.271Z,6.06
2023-02-27T00:53:03.843Z,6.10
2023-02-27T00:58:07.864Z,6.12
2023-02-27T01:03:12.728Z,6.11
2023-02-27T01:08:16.232Z,6.07
2023-02-27T01:13:19.695Z,6.01
2023-02-27T01:18:24.708Z,6.00
2023-02-27T01:23:28.239Z,5.90
2023-02-27T01:28:31.740Z,5.85
2023-02-27T01:33:36.676Z,5.85
2023-02-27T01:38:40.139Z,5.80
2023-02-27T01:43:57.787Z,5.79
2023-02-27T01:49:05.471Z,5.76
2023-02-27T01:54:10.660Z,5.69
2023-02-27T01:59:15.120Z,5.78
2023-02-27T02:04:23.780Z,5.76
2023-02-27T02:09:27.505Z,5.74
2023-02-27T02:14:31.134Z,5.54
2023-02-27T02:20:01.353Z,5.82
2023-02-27T02:25:46.987Z,5.91
2023-02-27T02:31:33.654Z,5.83
2023-02-27T02:37:18.237Z,5.92
2023-02-27T02:42:26.595Z,5.92
2023-02-27T02:47:35.515Z,5.97
2023-02-27T02:52:45.772Z,5.91
2023-02-27T02:57:53.946Z,5.87
2023-02-27T03:03:00.769Z,5.81
2023-02-27T03:08:16.738Z,5.72
2023-02-27T03:13:30.569Z,5.64
2023-02-27T03:18:36.138Z,5.63
2023-02-27T03:23:45.066Z,5.60
2023-02-27T03:28:56.368Z,5.55
2023-02-27T03:34:03.883Z,5.40
2023-02-27T03:39:11.921Z,5.46
2023-02-27T03:44:24.737Z,5.40
2023-02-27T03:49:28.376Z,5.32
2023-02-27T03:54:35.784Z,5.30
2023-02-27T03:59:40.684Z,5.32
2023-02-27T04:04:44.372Z,5.25
2023-02-27T04:10:07.446Z,5.10
2023-02-27T04:15:17.941Z,5.14
2023-02-27T04:20:39.165Z,5.19
2023-02-27T04:25:55.856Z,5.18
2023-02-27T04:31:06.702Z,5.14
2023-02-27T04:36:14.952Z,5.17
2023-02-27T04:41:22.294Z,5.11
2023-02-27T04:46:29.458Z,5.14
2023-02-27T04:51:36.668Z,5.13
2023-02-27T04:56:43.787Z,5.18
2023-02-27T05:01:53.911Z,5.18
2023-02-27T05:06:57.861Z,5.15
2023-02-27T05:12:04.344Z,5.10
2023-02-27T05:17:11.167Z,5.06
2023-02-27T05:22:25.502Z,5.04
2023-02-27T05:27:34.371Z,5.01
2023-02-27T05:32:43.175Z,5.08
2023-02-27T05:37:49.631Z,5.10
2023-02-27T05:42:58.928Z,5.32
2023-02-27T05:48:06.226Z,5.38
2023-02-27T05:53:12.999Z,5.43
2023-02-27T05:58:20.322Z,5.61
2023-02-27T06:03:26.126Z,5.82
2023-02-27T06:08:30.097Z,5.92
2023-02-27T06:13:33.951Z,5.95
2023-02-27T06:18:39.294Z,6.18
2023-02-27T06:23:45.195Z,6.40
2023-02-27T06:28:48.819Z,6.64
2023-02-27T06:33:55.698Z,6.81
2023-02-27T06:38:59.362Z,6.82
2023-02-27T06:44:02.968Z,6.97
2023-02-27T06:49:08.023Z,7.10
2023-02-27T06:54:11.528Z,7.14
2023-02-27T06:59:15.398Z,7.34
2023-02-27T07:04:20.812Z,7.56
2023-02-27T07:09:24.566Z,7.60
2023-02-27T07:14:28.070Z,7.65
2023-02-27T07:19:36.040Z,7.75
2023-02-27T07:24:39.570Z,8.09
2023-02-27T07:29:43.285Z,7.67
2023-02-27T07:34:48.251Z,7.46
2023-02-27T07:39:51.703Z,7.75
2023-02-27T07:44:55.157Z,7.21
2023-02-27T07:50:00.156Z,8.00
2023-02-27T07:55:03.738Z,8.76
2023-02-27T08:00:09.509Z,8.57
2023-02-27T08:05:17.365Z,8.76
2023-02-27T08:10:21.183Z,8.64
2023-02-27T08:15:24.742Z,9.07
2023-02-27T08:20:29.778Z,9.07
2023-02-27T08:25:33.492Z,9.15
2023-02-27T08:30:37.202Z,9.74
2023-02-27T08:35:42.621Z,8.95
2023-02-27T08:40:46.446Z,9.39
2023-02-27T08:45:50.285Z,10.25
2023-02-27T08:50:57.469Z,10.88
2023-02-27T08:56:01.364Z,10.86
2023-02-27T09:01:05.202Z,11.34
2023-02-27T09:06:10.394Z,11.82
2023-02-27T09:11:14.035Z,12.18
2023-02-27T09:16:17.472Z,12.29
2023-02-27T09:21:22.688Z,12.44
2023-02-27T09:26:40.782Z,12.59
2023-02-27T09:31:47.167Z,12.70
2023-02-27T09:36:52.141Z,13.30
2023-02-27T09:42:01.338Z,13.81
2023-02-27T09:47:05.699Z,13.31
2023-02-27T09:52:14.387Z,13.03
2023-02-27T09:57:22.494Z,13.00
2023-02-27T10:02:44.282Z,13.13
2023-02-27T10:07:55.049Z,13.93
2023-02-27T10:13:09.896Z,14.37
2023-02-27T10:18:27.040Z,14.23
2023-02-27T10:23:37.540Z,15.13
2023-02-27T10:28:41.078Z,14.63
2023-02-27T10:33:48.038Z,14.49
2023-02-27T10:38:56.270Z,14.59
2023-02-27T10:44:01.145Z,14.61
2023-02-27T10:49:14.222Z,14.59
2023-02-27T10:54:23.450Z,14.98
2023-02-27T10:59:28.687Z,14.91
2023-02-27T11:04:34.161Z,14.77
2023-02-27T11:09:39.038Z,14.22
2023-02-27T11:14:51.129Z,14.18
2023-02-27T11:19:58.573Z,14.26
2023-02-27T11:25:21.265Z,12.86
2023-02-27T11:30:27.948Z,14.06
2023-02-27T11:35:34.238Z,14.24
2023-02-27T11:40:41.592Z,13.48
2023-02-27T11:46:05.177Z,13.19
2023-02-27T11:51:34.874Z,14.34
2023-02-27T11:56:44.152Z,14.41
2023-02-27T12:01:50.527Z,15.07
2023-02-27T12:06:57.638Z,14.35
2023-02-27T12:12:04.500Z,15.41
2023-02-27T12:17:13.290Z,14.96
2023-02-27T12:22:22.120Z,15.22
2023-02-27T12:27:30.902Z,15.28
2023-02-27T12:32:40.409Z,15.36
2023-02-27T12:37:43.923Z,15.82
2023-02-27T12:43:06.578Z,14.78
2023-02-27T12:48:18.421Z,14.71
2023-02-27T12:53:49.057Z,14.71
2023-02-27T12:59:01.104Z,14.58
2023-02-27T13:04:08.280Z,14.45
2023-02-27T13:09:26.209Z,15.31
2023-02-27T13:14:38.916Z,15.51
2023-02-27T13:19:46.065Z,14.96
2023-02-27T13:24:51.316Z,15.41
2023-02-27T13:30:06.644Z,16.29
2023-02-27T13:35:21.221Z,16.51
2023-02-27T13:40:30.907Z,15.62
2023-02-27T13:45:53.501Z,14.84
2023-02-27T13:50:57.066Z,15.16
2023-02-27T13:56:20.537Z,14.72
2023-02-27T14:01:28.851Z,15.84
2023-02-27T14:06:32.780Z,15.15
2023-02-27T14:11:39.869Z,15.34
2023-02-27T14:16:59.263Z,16.03
2023-02-27T14:22:04.368Z,16.00
2023-02-27T14:27:17.878Z,15.80
2023-02-27T14:32:25.048Z,16.02
2023-02-27T14:37:28.918Z,14.94
2023-02-27T14:42:45.911Z,15.00
2023-02-27T14:47:50.897Z,14.98
2023-02-27T14:52:54.714Z,15.10
2023-02-27T14:58:00.555Z,15.11
2023-02-27T15:03:17.853Z,14.86
2023-02-27T15:08:26.323Z,15.30
2023-02-27T15:13:31.672Z,14.89
2023-02-27T15:18:40.914Z,14.30
2023-02-27T15:23:44.694Z,14.64
2023-02-27T15:28:49.630Z,14.13
2023-02-27T15:33:54.581Z,14.37
2023-02-27T15:39:15.204Z,14.23
2023-02-27T15:44:24.926Z,14.33
2023-02-27T15:49:30.017Z,14.45
2023-02-27T15:54:34.972Z,14.62
2023-02-27T15:59:41.896Z,14.37
2023-02-27T16:04:47.831Z,14.43
2023-02-27T16:09:54.679Z,14.14
2023-02-27T16:15:24.317Z,13.48
2023-02-27T16:20:44.152Z,14.05
2023-02-27T16:26:02.130Z,13.44
2023-02-27T16:31:06.412Z,13.64
2023-02-27T16:36:17.625Z,13.50
2023-02-27T16:41:22.870Z,13.52
2023-02-27T16:46:26.652Z,13.53
2023-02-27T16:51:34.606Z,13.52
2023-02-27T16:56:41.290Z,13.37
2023-02-27T17:01:44.880Z,13.40
2023-02-27T17:06:49.763Z,13.27
2023-02-27T17:11:55.792Z,13.31
2023-02-27T17:16:59.366Z,13.07
2023-02-27T17:22:04.173Z,12.66
2023-02-27T17:27:08.600Z,12.69
2023-02-27T17:32:12.117Z,12.75
2023-02-27T17:37:17.098Z,12.65
2023-02-27T17:42:20.684Z,12.69
2023-02-27T17:47:24.182Z,12.75
2023-02-27T17:52:29.141Z,12.52
2023-02-27T17:57:35.895Z,12.54
2023-02-27T18:02:39.419Z,12.37
2023-02-27T18:07:44.252Z,12.35
2023-02-27T18:12:48.057Z,12.52
2023-02-27T18:17:51.524Z,12.42
2023-02-27T18:23:03.561Z,12.34
2023-02-27T18:28:08.411Z,12.10
2023-02-27T18:33:14.201Z,12.42
2023-02-27T18:38:19.024Z,12.26
2023-02-27T18:43:22.485Z,12.42
2023-02-27T18:48:29.072Z,12.47
2023-02-27T18:53:35.653Z,12.34
2023-02-27T18:58:39.277Z,12.38
2023-02-27T19:03:42.968Z,12.55
2023-02-27T19:08:47.890Z,12.67
2023-02-27T19:13:51.587Z,12.55
2023-02-27T19:18:55.838Z,12.47
2023-02-27T19:24:01.028Z,12.44
2023-02-27T19:29:05.338Z,12.44
2023-02-27T19:34:08.786Z,12.54
2023-02-27T19:39:16.240Z,12.42
2023-02-27T19:44:19.719Z,12.36
2023-02-27T19:49:23.212Z,12.29
2023-02-27T19:54:30.803Z,12.25
2023-02-27T19:59:34.316Z,12.06
2023-02-27T20:04:37.709Z,12.02
2023-02-27T20:09:42.488Z,11.77
2023-02-27T20:14:46.004Z,11.64
2023-02-27T20:19:49.521Z,11.63
2023-02-27T20:24:56.452Z,11.61
2023-02-27T20:29:59.997Z,11.48
2023-02-27T20:35:03.583Z,11.27
2023-02-27T20:40:09.946Z,10.93
2023-02-27T20:45:13.387Z,11.26
2023-02-27T20:50:16.908Z,11.32
2023-02-27T20:55:21.950Z,11.31
2023-02-27T21:00:26.913Z,11.09
2023-02-27T21:05:31.045Z,11.18
2023-02-27T21:10:38.982Z,11.03
2023-02-27T21:15:42.468Z,10.83
2023-02-27T21:20:46.892Z,10.76
2023-02-27T21:25:51.746Z,10.83
2023-02-27T21:30:55.294Z,10.80
2023-02-27T21:35:59.067Z,10.71
2023-02-27T21:41:07.167Z,10.65
2023-02-27T21:46:12.953Z,10.45
2023-02-27T21:51:21.563Z,10.37
2023-02-27T21:56:34.701Z,10.30
2023-02-27T22:01:38.885Z,10.21
2023-02-27T22:06:42.572Z,10.25
2023-02-27T22:11:47.789Z,10.19
2023-02-27T22:16:51.232Z,10.24
2023-02-27T22:21:54.700Z,10.25
2023-02-27T22:26:59.471Z,10.24
2023-02-27T22:32:03.127Z,10.31
2023-02-27T22:37:06.618Z,10.36
2023-02-27T22:42:11.429Z,10.42
2023-02-27T22:47:14.872Z,10.47
2023-02-27T22:52:18.307Z,10.42
2023-02-27T22:57:23.269Z,10.39
2023-02-27T23:02:33.139Z,10.34
2023-02-27T23:07:36.533Z,10.24
2023-02-27T23:12:41.388Z,10.04
2023-02-27T23:17:57.646Z,9.72
2023-02-27T23:23:01.488Z,9.57
2023-02-27T23:28:06.894Z,9.38
2023-02-27T23:33:10.409Z,9.38
2023-02-27T23:38:13.876Z,9.28
2023-02-27T23:43:18.662Z,9.18
2023-02-27T23:48:22.903Z,9.00
2023-02-27T23:53:26.426Z,8.86
2023-02-27T23:58:31.172Z,8.88
